Freetown, Kentucky
Current Conditions -  °F | °C
As of 11:55 AM on Friday 21 Nov 2014 (Local Time) from KGLW Reporting Station
Clear Clear  
Wind Chill:   Ceiling: Unl
Heat Index:   Visibility: 10mi
Dew Point: -9°   Wind: 7mph
Humidity: 34%   Direction: 80°E
Pressure: 30.45"   Gusts: NA
Location:  36.6549°N, 85.8315°W
Report Text: KGLW 211755Z AUTO 08006KT 10SM CLR 06/M09 A3045 RMK AO2 T00561093 10057 21076
Loading
Personal Weather Stations






























Interactive Weather Map New forecast layout! Learn more

10-Day Weather Forecast

Advertisements
Track Severe Weather on mobile